Time;durP1;ratioP1;P1;durP2;ratioP2;P2;SDS_P1;SDS_P2;PMS_P1;PMS_P2;Temp;Humidity;BMP_temperature;BMP_pressure;BME280_temperature;BME280_humidity;BME280_pressure;Samples;Min_cycle;Max_cycle;Signal;HPM_P1;HPM_P2
2022/10/05 00:00:18;;;;;;;;;17.25;17.25;;;;;16.46;70.13;101575.75;5058565;28;46391;-63
2022/10/05 00:02:45;;;;;;;;;15.50;15.50;;;;;16.47;70.31;101567.59;5059993;28;45570;-63
2022/10/05 00:05:30;;;;;;;;;22.00;21.75;;;;;16.46;70.23;101575.75;5060155;28;45513;-63
2022/10/05 00:08:04;;;;;;;;;17.75;16.25;;;;;16.41;70.38;101575.94;5067354;28;45722;-63
2022/10/05 00:10:30;;;;;;;;;16.75;16.75;;;;;16.41;69.87;101567.00;5059143;28;45465;-63
2022/10/05 00:12:55;;;;;;;;;21.00;15.75;;;;;16.31;70.35;101553.06;5076046;28;50523;-63
2022/10/05 00:15:22;;;;;;;;;16.00;16.00;;;;;16.27;70.13;101552.31;5066753;28;45445;-63
2022/10/05 00:17:47;;;;;;;;;19.25;19.00;;;;;16.30;70.55;101562.06;5058859;28;45414;-63
2022/10/05 00:20:17;;;;;;;;;17.75;17.00;;;;;16.33;70.60;101558.38;5061939;28;46293;-63
2022/10/05 00:22:43;;;;;;;;;16.00;16.00;;;;;16.28;70.52;101548.66;5073279;27;45399;-63
2022/10/05 00:25:15;;;;;;;;;17.00;14.50;;;;;16.30;70.38;101557.56;5058933;28;45540;-63
2022/10/05 00:27:41;;;;;;;;;17.25;17.00;;;;;16.29;70.53;101554.94;5071073;28;45426;-63
2022/10/05 00:30:18;;;;;;;;;18.50;17.50;;;;;16.27;70.39;101549.63;5076743;27;47345;-63
2022/10/05 00:32:44;;;;;;;;;14.75;13.25;;;;;16.25;70.54;101551.47;5071294;28;45376;-63
2022/10/05 00:35:11;;;;;;;;;17.75;17.50;;;;;16.17;70.76;101537.50;5063565;28;45575;-63
2022/10/05 00:37:37;;;;;;;;;14.25;14.25;;;;;16.18;70.45;101541.91;5058469;28;45492;-63
2022/10/05 00:40:29;;;;;;;;;14.25;14.00;;;;;16.14;70.60;101534.03;5060640;28;45349;-63
2022/10/05 00:43:17;;;;;;;;;17.75;16.25;;;;;16.21;70.70;101552.56;5056725;27;45398;-63
2022/10/05 00:45:54;;;;;;;;;15.25;15.25;;;;;16.05;70.78;101530.78;5053684;28;45398;-63
2022/10/05 00:48:37;;;;;;;;;18.25;18.00;;;;;16.15;70.84;101541.19;5063600;28;45319;-63
2022/10/05 00:51:28;;;;;;;;;15.75;15.50;;;;;16.10;71.05;101536.88;5064973;28;46192;-63
2022/10/05 00:53:59;;;;;;;;;18.25;16.75;;;;;16.09;70.92;101539.66;5071125;28;45645;-63
2022/10/05 00:56:36;;;;;;;;;17.25;17.00;;;;;16.07;71.00;101546.88;5067006;28;45495;-63
2022/10/05 00:59:04;;;;;;;;;18.50;17.50;;;;;16.06;71.05;101548.72;5065098;28;45591;-63
2022/10/05 01:01:59;;;;;;;;;16.25;15.00;;;;;16.01;71.13;101542.66;5061616;28;45464;-63
2022/10/05 01:04:46;;;;;;;;;17.75;17.75;;;;;16.01;71.16;101549.88;5063758;28;46949;-63
2022/10/05 01:07:22;;;;;;;;;19.25;16.75;;;;;16.01;70.92;101550.72;5061827;28;45434;-63
2022/10/05 01:10:05;;;;;;;;;16.00;16.00;;;;;16.00;71.15;101543.56;5062645;28;45493;-63
2022/10/05 01:12:47;;;;;;;;;17.75;15.00;;;;;15.99;71.11;101543.63;5075131;28;46496;-63
2022/10/05 01:15:41;;;;;;;;;14.25;14.25;;;;;15.97;71.03;101551.81;5080056;28;45503;-63
2022/10/05 01:18:21;;;;;;;;;14.25;13.50;;;;;15.96;71.37;101551.88;5068081;28;45420;-63
2022/10/05 01:21:04;;;;;;;;;15.25;13.25;;;;;15.93;71.26;101547.47;5063587;27;46485;-63
2022/10/05 01:23:32;;;;;;;;;13.00;13.00;;;;;15.92;71.10;101545.72;5063339;28;45635;-63
2022/10/05 01:26:25;;;;;;;;;12.25;12.25;;;;;15.84;71.10;101545.19;5061342;28;45317;-63
2022/10/05 01:28:59;;;;;;;;;15.25;15.00;;;;;15.89;71.15;101546.72;5061285;28;45469;-63
2022/10/05 01:31:31;;;;;;;;;14.00;12.00;;;;;15.88;71.13;101547.66;5061475;28;45454;-63
2022/10/05 01:34:06;;;;;;;;;16.00;15.25;;;;;15.88;71.21;101544.09;5076445;28;47286;-63
2022/10/05 01:36:32;;;;;;;;;14.50;13.50;;;;;15.87;71.32;101539.66;5079360;28;45455;-63
2022/10/05 01:39:11;;;;;;;;;12.50;11.75;;;;;15.82;71.24;101528.19;5064011;28;45498;-63
2022/10/05 01:42:12;;;;;;;;;12.50;12.00;;;;;15.86;71.32;101536.09;5081409;28;45438;-63
2022/10/05 01:44:53;;;;;;;;;11.50;11.50;;;;;15.87;71.31;101531.56;5008739;28;45447;-63
2022/10/05 01:47:28;;;;;;;;;12.00;11.00;;;;;15.81;71.20;101532.72;5076114;28;45492;-63
2022/10/05 01:50:06;;;;;;;;;10.00;9.00;;;;;15.85;70.87;101528.94;5076913;28;45563;-63
2022/10/05 01:52:46;;;;;;;;;10.00;10.00;;;;;15.89;71.13;101533.28;5076351;28;45654;-63
2022/10/05 01:55:20;;;;;;;;;9.50;9.50;;;;;15.90;71.06;101528.75;5059580;28;46574;-63
2022/10/05 01:58:32;;;;;;;;;8.75;7.75;;;;;15.92;71.20;101529.56;5072802;28;45674;-63
2022/10/05 02:01:08;;;;;;;;;9.75;8.00;;;;;15.74;71.39;101498.91;5023804;28;45377;-63
2022/10/05 02:03:45;;;;;;;;;8.50;7.50;;;;;15.85;71.03;101509.22;5061150;28;45817;-63
2022/10/05 02:06:21;;;;;;;;;8.00;8.00;;;;;15.92;70.97;101527.75;5072929;28;47514;-63
2022/10/05 02:08:53;;;;;;;;;11.25;9.75;;;;;15.90;70.99;101513.50;5066637;28;45464;-63
2022/10/05 02:11:18;;;;;;;;;8.00;7.00;;;;;15.93;71.06;101521.41;5061017;28;45532;-63
2022/10/05 02:14:11;;;;;;;;;7.75;7.75;;;;;15.95;71.16;101517.81;5074353;28;45542;-63
2022/10/05 02:16:42;;;;;;;;;8.75;7.75;;;;;15.92;71.13;101508.91;5065966;28;46652;-63
2022/10/05 02:19:20;;;;;;;;;8.50;8.00;;;;;15.96;71.09;101512.34;5067159;27;45545;-63
2022/10/05 02:21:53;;;;;;;;;8.00;8.00;;;;;15.91;70.92;101495.53;5069537;27;45362;-63
2022/10/05 02:24:25;;;;;;;;;7.50;7.50;;;;;15.98;70.88;101506.91;5072662;28;45562;-63
2022/10/05 02:26:54;;;;;;;;;6.75;6.75;;;;;15.97;70.83;101497.97;5072002;28;46263;-63
2022/10/05 02:29:23;;;;;;;;;7.50;6.00;;;;;15.99;70.73;101497.88;5062194;28;46056;-63
2022/10/05 02:32:02;;;;;;;;;8.00;8.00;;;;;15.98;70.89;101496.13;5066034;28;45574;-63
2022/10/05 02:34:35;;;;;;;;;6.50;6.00;;;;;15.96;70.54;101487.25;5063896;28;45451;-63
2022/10/05 02:37:28;;;;;;;;;7.00;6.00;;;;;15.95;70.87;101483.66;5078783;27;46562;-63
2022/10/05 02:40:27;;;;;;;;;6.50;6.50;;;;;15.97;70.77;101488.97;5063520;28;45457;-63
2022/10/05 02:43:04;;;;;;;;;8.00;6.50;;;;;15.98;70.60;101482.66;5070644;28;45378;-63
2022/10/05 02:45:49;;;;;;;;;5.75;5.75;;;;;15.96;70.66;101480.03;5066573;28;45510;-63
2022/10/05 02:48:25;;;;;;;;;6.00;6.00;;;;;15.89;70.85;101465.09;5076632;28;47207;-63
2022/10/05 02:51:21;;;;;;;;;6.00;6.00;;;;;15.96;70.44;101471.97;5072208;27;45334;-63
2022/10/05 02:53:58;;;;;;;;;5.00;4.50;;;;;15.95;70.40;101472.88;5070423;28;45476;-63
2022/10/05 02:56:54;;;;;;;;;6.00;5.00;;;;;15.89;70.61;101465.97;5064857;28;45411;-63
2022/10/05 02:59:24;;;;;;;;;5.00;5.00;;;;;15.91;70.62;101466.78;5070682;28;45460;-63
2022/10/05 03:01:55;;;;;;;;;5.00;4.00;;;;;15.89;70.53;101462.41;5059900;28;45678;-63
2022/10/05 03:04:36;;;;;;;;;4.75;4.75;;;;;15.92;70.15;101468.53;5058751;28;45478;-63
2022/10/05 03:07:25;;;;;;;;;4.00;4.00;;;;;15.92;70.36;101468.53;5065123;28;45713;-63
2022/10/05 03:10:18;;;;;;;;;8.00;3.75;;;;;15.90;70.14;101465.03;5089011;27;46510;-63
2022/10/05 03:12:53;;;;;;;;;4.75;4.50;;;;;15.90;70.26;101470.41;5076776;28;45463;-63
2022/10/05 03:15:48;;;;;;;;;4.00;4.00;;;;;15.65;70.14;101432.00;5068379;28;45377;-63
2022/10/05 03:18:32;;;;;;;;;5.25;5.25;;;;;15.88;70.04;101474.09;5068124;28;45408;-63
2022/10/05 03:21:27;;;;;;;;;6.00;5.50;;;;;15.86;70.04;101467.91;5061094;28;46220;-63
2022/10/05 03:24:11;;;;;;;;;5.00;5.00;;;;;15.84;70.13;101462.59;5057693;27;45605;-63
2022/10/05 03:26:48;;;;;;;;;4.50;4.50;;;;;15.82;70.46;101458.22;5059995;28;45714;-63
2022/10/05 03:29:27;;;;;;;;;4.50;4.50;;;;;15.85;70.00;101463.47;5059299;28;45412;-63
2022/10/05 03:32:11;;;;;;;;;4.50;4.50;;;;;15.84;70.09;101459.91;5059273;28;45512;-63
2022/10/05 03:34:45;;;;;;;;;5.75;5.75;;;;;15.81;69.95;101448.41;5077874;27;45558;-63
2022/10/05 03:37:13;;;;;;;;;5.75;5.00;;;;;15.85;69.92;101450.00;5062895;27;45491;-63
2022/10/05 03:39:45;;;;;;;;;6.00;5.00;;;;;15.82;69.96;101448.34;5059348;28;45950;-63
2022/10/05 03:42:29;;;;;;;;;7.25;6.25;;;;;15.82;69.80;101456.41;5058011;28;47078;-63
2022/10/05 03:45:12;;;;;;;;;9.00;7.75;;;;;15.79;69.95;101444.91;5072650;28;45368;-63
2022/10/05 03:48:01;;;;;;;;;6.00;6.00;;;;;15.80;69.76;101442.13;5065729;28;45485;-63
2022/10/05 03:50:27;;;;;;;;;6.50;6.50;;;;;15.80;69.82;101441.25;5077407;28;45455;-63
2022/10/05 03:53:02;;;;;;;;;7.00;7.00;;;;;15.63;69.83;101413.22;5074464;27;47011;-63
2022/10/05 03:55:41;;;;;;;;;6.00;6.00;;;;;15.78;69.73;101432.38;5065661;28;45318;-63
2022/10/05 03:58:17;;;;;;;;;6.75;5.00;;;;;15.60;69.85;101413.34;5074139;28;46451;-63
2022/10/05 04:00:48;;;;;;;;;4.25;4.25;;;;;15.63;69.75;101415.91;5077182;28;45523;-63
2022/10/05 04:03:20;;;;;;;;;9.75;7.00;;;;;15.66;69.71;101420.28;5066604;27;45334;-63
2022/10/05 04:05:54;;;;;;;;;4.75;4.75;;;;;15.72;69.95;101433.50;5077663;28;45402;-63
2022/10/05 04:08:28;;;;;;;;;7.75;6.00;;;;;15.79;69.81;101444.91;5064219;28;47257;-63
2022/10/05 04:10:56;;;;;;;;;6.50;5.00;;;;;15.63;70.22;101415.91;5064196;28;45563;-63
2022/10/05 04:13:51;;;;;;;;;5.00;5.00;;;;;15.64;69.93;101427.56;5069364;28;46085;-63
2022/10/05 04:16:23;;;;;;;;;7.25;6.00;;;;;15.76;69.77;101445.03;5059754;28;45414;-63
2022/10/05 04:19:12;;;;;;;;;6.75;6.25;;;;;15.77;69.77;101444.06;5060992;28;45504;-63
2022/10/05 04:21:49;;;;;;;;;6.50;6.00;;;;;15.61;69.80;101425.00;5064126;27;45669;-63
2022/10/05 04:24:22;;;;;;;;;9.25;8.75;;;;;15.63;69.63;101423.09;5072308;28;45355;-63
2022/10/05 04:26:58;;;;;;;;;5.25;5.25;;;;;15.53;69.94;101399.25;5059027;28;45591;-63
2022/10/05 04:29:38;;;;;;;;;6.25;6.00;;;;;15.63;69.74;101415.91;5058579;28;45329;-63
2022/10/05 04:32:36;;;;;;;;;8.25;6.00;;;;;15.73;69.53;101433.41;5058586;28;45383;-63
2022/10/05 04:35:23;;;;;;;;;5.50;5.50;;;;;15.72;69.41;101434.38;5074411;27;45907;-63
2022/10/05 04:37:57;;;;;;;;;5.75;4.50;;;;;15.56;69.47;101414.41;5073869;27;45284;-63
2022/10/05 04:40:56;;;;;;;;;7.50;7.00;;;;;15.57;69.56;101410.81;5067131;28;45567;-63
2022/10/05 04:43:59;;;;;;;;;7.00;6.50;;;;;15.51;69.44;101408.38;5072161;28;45286;-63
2022/10/05 04:47:00;;;;;;;;;7.50;6.75;;;;;15.63;69.57;101434.75;5078206;27;48560;-63
2022/10/05 04:49:34;;;;;;;;;5.00;5.00;;;;;15.60;69.73;101434.00;5068111;28;45554;-63
2022/10/05 04:52:06;;;;;;;;;8.00;7.00;;;;;15.37;69.45;101393.69;5069707;28;45459;-63
2022/10/05 04:55:02;;;;;;;;;5.50;5.50;;;;;15.53;69.75;101422.63;5062590;28;45327;-63
2022/10/05 04:57:45;;;;;;;;;7.75;6.25;;;;;15.51;69.77;101421.81;5067515;28;45491;-63
2022/10/05 05:00:24;;;;;;;;;4.75;4.25;;;;;15.22;69.55;101377.28;5066129;28;45551;-63
2022/10/05 05:03:02;;;;;;;;;7.00;5.00;;;;;15.48;69.79;101420.13;5062384;28;45407;-63
2022/10/05 05:05:39;;;;;;;;;6.00;6.00;;;;;15.40;69.71;101408.78;5066761;28;45260;-63
2022/10/05 05:08:34;;;;;;;;;6.50;6.00;;;;;15.48;69.79;101417.44;5072373;28;47450;-63
2022/10/05 05:11:25;;;;;;;;;7.50;6.50;;;;;15.44;69.72;101409.56;5062060;28;45564;-63
2022/10/05 05:13:59;;;;;;;;;8.25;8.00;;;;;15.42;69.66;101406.94;5072709;28;45405;-63
2022/10/05 05:16:32;;;;;;;;;8.00;6.00;;;;;15.21;69.50;101383.63;5060780;28;45435;-63
2022/10/05 05:19:15;;;;;;;;;7.00;6.00;;;;;15.37;69.91;101409.81;5058231;28;45437;-63
2022/10/05 05:22:04;;;;;;;;;6.25;6.25;;;;;15.36;69.79;101407.19;5059988;27;45612;-63
2022/10/05 05:24:33;;;;;;;;;6.00;6.00;;;;;15.33;69.84;101393.88;5071670;28;45441;-63
2022/10/05 05:27:20;;;;;;;;;4.75;4.75;;;;;15.30;69.77;101402.97;5065834;28;45936;-63
2022/10/05 05:30:23;;;;;;;;;6.00;6.00;;;;;15.22;70.03;101383.56;5065107;28;47593;-63
2022/10/05 05:33:07;;;;;;;;;5.00;5.00;;;;;15.22;69.93;101391.63;5059113;28;45522;-63
2022/10/05 05:36:01;;;;;;;;;6.00;6.00;;;;;15.29;69.82;101400.31;5067262;27;45447;-63
2022/10/05 05:38:44;;;;;;;;;7.00;6.00;;;;;15.26;69.78;101389.69;5085317;27;45463;-63
2022/10/05 05:41:19;;;;;;;;;4.75;4.75;;;;;15.25;69.82;101396.91;5061222;28;45456;-63
2022/10/05 05:44:04;;;;;;;;;5.00;5.00;;;;;15.22;69.91;101402.41;5060392;28;45726;-63
2022/10/05 05:46:36;;;;;;;;;7.25;5.00;;;;;15.02;70.09;101360.19;5060443;28;45413;-64
2022/10/05 05:49:23;;;;;;;;;6.00;6.00;;;;;15.02;70.39;101376.31;5068250;28;45428;-63
2022/10/05 05:51:58;;;;;;;;;7.00;5.00;;;;;15.04;70.08;101365.50;5064988;28;48233;-63
2022/10/05 05:54:54;;;;;;;;;8.00;7.00;;;;;15.03;70.05;101367.31;5058579;28;45537;-63
2022/10/05 05:57:23;;;;;;;;;8.00;7.00;;;;;15.13;69.84;101384.81;5053391;27;45398;-63
2022/10/05 05:59:59;;;;;;;;;6.25;6.25;;;;;15.13;70.20;101395.56;5062686;28;45533;-63
2022/10/05 06:02:30;;;;;;;;;8.00;6.25;;;;;14.93;69.76;101364.09;5073366;27;46151;-64
2022/10/05 06:05:02;;;;;;;;;8.00;8.00;;;;;14.92;70.22;101366.88;5070022;27;45654;-64
2022/10/05 06:07:30;;;;;;;;;6.75;6.75;;;;;14.98;70.22;101382.75;5072562;28;46442;-64
2022/10/05 06:10:05;;;;;;;;;6.00;5.00;;;;;15.06;70.38;101390.50;5061363;28;45463;-64
2022/10/05 06:12:43;;;;;;;;;6.25;5.50;;;;;14.99;70.11;101381.81;5064072;28;46340;-64
2022/10/05 06:15:14;;;;;;;;;6.00;6.00;;;;;15.00;70.12;101378.19;5072636;28;45609;-64
2022/10/05 06:17:47;;;;;;;;;5.75;5.75;;;;;14.97;70.35;101372.94;5077209;28;45423;-64
2022/10/05 06:20:26;;;;;;;;;8.00;7.00;;;;;14.87;70.36;101361.69;5072876;28;45330;-64
2022/10/05 06:22:54;;;;;;;;;7.50;7.50;;;;;14.79;70.36;101350.38;5071143;27;45489;-63
2022/10/05 06:25:49;;;;;;;;;8.00;6.50;;;;;15.00;70.40;101389.81;5071365;28;45378;-64
2022/10/05 06:28:18;;;;;;;;;9.00;9.00;;;;;14.75;70.19;101349.63;5040815;28;45646;-64
2022/10/05 06:31:08;;;;;;;;;8.00;8.00;;;;;14.92;70.26;101381.19;5078287;28;45653;-64
2022/10/05 06:34:22;;;;;;;;;10.00;9.75;;;;;14.93;70.20;101382.94;5063744;28;46137;-64
2022/10/05 06:37:12;;;;;;;;;9.75;9.75;;;;;14.92;70.20;101386.56;5049433;28;46592;-64
2022/10/05 06:40:09;;;;;;;;;10.00;10.00;;;;;14.74;70.35;101353.25;5060527;28;45485;-64
2022/10/05 06:42:37;;;;;;;;;12.00;12.00;;;;;14.92;70.63;101389.25;5068386;28;45539;-63
2022/10/05 06:45:39;;;;;;;;;11.50;11.25;;;;;14.92;70.59;101388.41;5064941;28;45843;-63
2022/10/05 06:48:45;;;;;;;;;14.50;14.25;;;;;14.91;70.69;101397.38;5065627;28;45617;-63
2022/10/05 06:51:33;;;;;;;;;13.00;13.00;;;;;14.89;70.93;101392.06;5071770;27;45454;-64
2022/10/05 06:54:16;;;;;;;;;14.50;13.00;;;;;14.88;71.17;101392.13;5068280;28;45592;-64
2022/10/05 06:57:11;;;;;;;;;14.75;14.75;;;;;14.64;71.14;101350.03;5064634;28;45436;-64
2022/10/05 06:59:43;;;;;;;;;14.50;13.00;;;;;14.84;71.38;101382.44;5059919;28;45381;-64
2022/10/05 07:02:35;;;;;;;;;11.50;11.50;;;;;14.88;71.36;101379.56;5071005;28;45442;-66
2022/10/05 07:05:28;;;;;;;;;15.00;13.00;;;;;14.87;71.28;101388.56;5055475;28;45452;-65
2022/10/05 07:07:58;;;;;;;;;16.25;14.75;;;;;14.70;71.46;101353.41;5063147;27;46444;-66
2022/10/05 07:10:31;;;;;;;;;13.50;12.75;;;;;14.87;71.47;101383.19;5075302;28;45639;-66
2022/10/05 07:13:02;;;;;;;;;17.00;17.00;;;;;14.86;71.75;101384.13;5077108;27;45673;-66
2022/10/05 07:15:55;;;;;;;;;16.00;15.00;;;;;14.69;71.74;101351.69;5078563;27;45995;-65
2022/10/05 07:18:31;;;;;;;;;15.50;15.50;;;;;14.88;71.98;101386.75;5070452;27;47271;-65
2022/10/05 07:20:56;;;;;;;;;15.25;15.25;;;;;14.89;71.93;101394.75;5064983;27;45397;-65
2022/10/05 07:23:36;;;;;;;;;17.00;15.00;;;;;14.71;72.16;101363.25;5074200;27;45512;-65
2022/10/05 07:26:17;;;;;;;;;20.00;18.75;;;;;14.92;72.08;101401.84;5067170;28;45481;-65
2022/10/05 07:29:06;;;;;;;;;16.50;16.50;;;;;14.92;72.26;101413.44;5062809;27;45699;-66
2022/10/05 07:31:43;;;;;;;;;19.00;18.50;;;;;14.94;72.23;101403.50;5065351;27;45649;-65
2022/10/05 07:34:20;;;;;;;;;16.25;13.50;;;;;14.80;72.15;101373.59;5070069;28;45676;-67
2022/10/05 07:40:28;;;;;;;;;17.00;15.50;;;;;15.06;72.21;101414.72;5090704;27;45829;-64
2022/10/05 07:43:17;;;;;;;;;15.75;14.50;;;;;15.09;72.11;101411.91;5075622;27;45435;-60
2022/10/05 07:46:02;;;;;;;;;14.00;13.00;;;;;14.82;72.53;101369.94;5069469;28;45715;-61
2022/10/05 07:48:37;;;;;;;;;12.00;12.00;;;;;15.14;72.29;101415.28;5054653;28;45515;-62
2022/10/05 07:51:14;;;;;;;;;13.00;13.00;;;;;15.10;72.21;101405.56;5054224;28;46307;-62
2022/10/05 07:53:50;;;;;;;;;13.25;13.25;;;;;15.04;72.00;101395.94;5053878;28;45711;-62
2022/10/05 07:56:32;;;;;;;;;14.00;14.00;;;;;15.12;72.30;101403.72;5042487;28;45443;-61
2022/10/05 07:59:06;;;;;;;;;13.25;13.25;;;;;14.98;72.57;101380.06;5049761;28;45449;-61
2022/10/05 08:01:36;;;;;;;;;10.50;9.75;;;;;15.08;72.52;101397.56;5053723;28;46135;-61
2022/10/05 08:04:09;;;;;;;;;8.50;8.50;;;;;15.27;72.44;101426.38;5049725;28;45750;-60
2022/10/05 08:06:58;;;;;;;;;13.00;11.75;;;;;15.09;72.46;101391.25;5053651;28;45497;-60
2022/10/05 08:09:46;;;;;;;;;10.25;9.75;;;;;15.29;72.52;101417.34;5052776;28;45484;-60
2022/10/05 08:12:48;;;;;;;;;7.75;7.75;;;;;15.25;72.67;101415.72;5051299;28;45987;-60
2022/10/05 08:15:19;;;;;;;;;10.00;9.75;;;;;15.14;72.57;101386.56;5053175;28;45706;-60
2022/10/05 08:18:18;;;;;;;;;10.50;9.25;;;;;15.31;72.66;101409.19;5050453;28;45823;-60
2022/10/05 08:20:50;;;;;;;;;13.25;8.50;;;;;15.14;72.76;101373.13;5050975;28;45334;-59
2022/10/05 08:23:32;;;;;;;;;10.75;10.00;;;;;15.44;72.86;101420.34;5050211;28;45517;-60
2022/10/05 08:26:14;;;;;;;;;9.25;9.25;;;;;15.50;72.97;101417.38;5035785;28;45526;-60
2022/10/05 08:28:59;;;;;;;;;6.75;6.75;;;;;15.52;73.37;101416.38;5051275;28;45353;-60
2022/10/05 08:31:36;;;;;;;;;8.50;8.00;;;;;15.36;73.30;101381.16;5053822;28;45367;-60
2022/10/05 08:34:20;;;;;;;;;8.75;8.00;;;;;15.64;73.43;101424.88;5053026;28;47032;-60
2022/10/05 08:36:57;;;;;;;;;7.50;6.75;;;;;15.71;73.46;101423.66;5051864;28;45636;-60
2022/10/05 08:39:28;;;;;;;;;6.75;6.50;;;;;15.63;73.68;101406.97;5067245;28;45618;-61
2022/10/05 08:42:47;;;;;;;;;8.00;6.50;;;;;15.86;73.47;101428.41;5073985;27;45318;-62
2022/10/05 08:45:29;;;;;;;;;7.25;6.00;;;;;15.93;73.54;101426.31;4997409;28;47661;-61
2022/10/05 08:48:27;;;;;;;;;7.00;5.50;;;;;16.00;73.75;101429.63;5066172;27;45592;-60
2022/10/05 08:51:37;;;;;;;;;8.00;6.00;;;;;16.06;73.36;101438.31;5057923;28;45532;-60
2022/10/05 08:54:21;;;;;;;;;5.00;5.00;;;;;16.12;73.45;101429.06;5027961;28;45354;-61
2022/10/05 08:57:30;;;;;;;;;4.50;4.50;;;;;15.93;73.27;101391.31;5056113;28;46530;-61
2022/10/05 09:00:07;;;;;;;;;5.25;4.50;;;;;16.06;73.29;101407.81;5054669;28;45818;-61
2022/10/05 09:02:36;;;;;;;;;6.00;6.00;;;;;16.25;73.22;101435.66;5060772;28;45451;-60
2022/10/05 09:05:29;;;;;;;;;7.00;7.00;;;;;16.30;73.22;101444.44;5060613;28;45436;-61
2022/10/05 09:08:29;;;;;;;;;7.50;6.25;;;;;16.35;73.36;101438.81;5058257;28;46998;-61
2022/10/05 09:11:20;;;;;;;;;7.25;7.25;;;;;16.36;73.54;101440.56;5056508;28;45535;-61
2022/10/05 09:14:04;;;;;;;;;9.25;9.25;;;;;16.44;73.14;101442.91;5040553;28;45732;-61
2022/10/05 09:16:56;;;;;;;;;7.00;7.00;;;;;16.48;73.10;101442.69;5072045;27;45537;-61
2022/10/05 09:20:06;;;;;;;;;6.75;5.75;;;;;16.53;73.03;101450.56;5043786;28;45439;-61
2022/10/05 09:22:53;;;;;;;;;9.50;6.75;;;;;16.45;73.10;101418.56;4970532;28;45750;-61
2022/10/05 09:25:45;;;;;;;;;11.50;8.25;;;;;16.44;73.05;101406.06;4971577;28;45775;-61
2022/10/05 09:28:23;;;;;;;;;8.00;8.00;;;;;16.66;73.10;101446.34;5041031;28;45499;-61
2022/10/05 09:31:11;;;;;;;;;7.00;7.00;;;;;16.71;72.58;101445.28;5057897;28;45521;-61
2022/10/05 09:34:15;;;;;;;;;5.75;5.75;;;;;16.76;72.70;101448.63;5056691;28;45368;-61
2022/10/05 09:37:23;;;;;;;;;6.25;6.25;;;;;16.81;72.14;101452.00;5058592;28;45338;-61
2022/10/05 09:40:18;;;;;;;;;6.75;6.25;;;;;16.84;71.95;101457.25;5055513;28;45403;-61
2022/10/05 09:42:56;;;;;;;;;6.75;6.00;;;;;16.70;71.79;101427.34;5048436;28;46467;-61
2022/10/05 09:45:32;;;;;;;;;6.75;6.75;;;;;16.90;71.77;101459.66;5062274;28;45566;-61
2022/10/05 09:48:24;;;;;;;;;5.50;5.00;;;;;16.93;71.58;101453.25;5058626;28;45419;-61
2022/10/05 09:51:32;;;;;;;;;5.75;4.00;;;;;16.81;71.33;101425.03;5052487;28;46712;-61
2022/10/05 09:54:28;;;;;;;;;5.50;5.50;;;;;17.01;71.15;101448.38;5054333;28;45603;-61
2022/10/05 09:57:11;;;;;;;;;5.50;5.50;;;;;17.07;71.50;101442.66;5058135;28;45345;-61
2022/10/05 10:00:06;;;;;;;;;4.00;4.00;;;;;17.14;70.73;101452.22;5057485;28;45407;-61
2022/10/05 10:02:55;;;;;;;;;3.75;3.75;;;;;17.06;70.34;101421.16;5052906;28;45701;-61
2022/10/05 10:05:33;;;;;;;;;6.25;5.00;;;;;17.28;70.30;101447.97;5072252;28;48077;-61
2022/10/05 10:08:19;;;;;;;;;4.25;3.25;;;;;17.34;70.10;101443.16;5057545;28;45479;-61
2022/10/05 10:10:52;;;;;;;;;5.50;5.00;;;;;17.22;69.78;101428.44;5047677;28;45443;-61
2022/10/05 10:13:18;;;;;;;;;3.25;3.25;;;;;17.42;70.28;101448.16;5040877;28;45520;-61
2022/10/05 10:15:56;;;;;;;;;4.25;4.25;;;;;17.43;69.39;101443.66;5056561;28;46063;-60
2022/10/05 10:18:58;;;;;;;;;3.25;3.00;;;;;17.46;68.68;101446.16;5060477;28;45555;-60
2022/10/05 10:22:00;;;;;;;;;7.25;4.75;;;;;17.46;68.23;101443.47;5065152;28;45536;-60
2022/10/05 10:24:47;;;;;;;;;4.75;4.75;;;;;17.45;67.52;101439.91;5038703;28;45661;-61
2022/10/05 10:27:19;;;;;;;;;5.25;3.50;;;;;17.46;67.63;101440.75;5050140;28;46303;-61
2022/10/05 10:30:02;;;;;;;;;4.50;2.25;;;;;17.26;67.57;101401.28;5057495;28;45633;-61
2022/10/05 10:32:30;;;;;;;;;3.25;3.25;;;;;17.50;67.88;101443.25;5058068;28;45724;-61
2022/10/05 10:35:35;;;;;;;;;3.50;3.50;;;;;17.52;67.36;101435.94;5057907;28;45525;-61
2022/10/05 10:38:22;;;;;;;;;4.00;4.00;;;;;17.49;67.49;101427.13;5058181;28;45755;-61
2022/10/05 10:41:06;;;;;;;;;4.25;4.25;;;;;17.52;66.83;101424.28;5054660;28;45529;-61
2022/10/05 10:44:05;;;;;;;;;4.50;3.25;;;;;17.59;67.51;101432.00;5058232;28;45388;-61
2022/10/05 10:46:59;;;;;;;;;4.25;4.25;;;;;17.64;67.96;101431.78;5043816;28;45358;-61
2022/10/05 10:49:43;;;;;;;;;4.75;3.50;;;;;17.67;67.16;101428.03;5067767;27;47233;-61
2022/10/05 10:52:39;;;;;;;;;4.50;4.50;;;;;17.68;67.33;101430.66;5055661;28;45464;-61
2022/10/05 10:56:00;;;;;;;;;4.25;3.50;;;;;17.70;66.97;101430.56;5049032;28;45522;-62
2022/10/05 10:58:41;;;;;;;;;4.50;4.50;;;;;17.70;67.13;101422.47;4981920;28;45522;-61
2022/10/05 11:01:34;;;;;;;;;4.25;4.25;;;;;17.72;66.92;101425.94;5044778;28;45640;-61
2022/10/05 11:04:06;;;;;;;;;4.00;4.00;;;;;17.72;66.28;101409.75;5057708;28;45381;-61
2022/10/05 11:06:57;;;;;;;;;4.50;3.50;;;;;17.59;66.55;101385.22;5038790;28;45450;-61
2022/10/05 11:09:55;;;;;;;;;4.25;3.50;;;;;17.76;66.72;101405.97;5054869;28;45497;-63
2022/10/05 11:12:29;;;;;;;;;3.25;3.25;;;;;17.79;66.55;101400.38;5049569;28;45785;-63
2022/10/05 11:15:04;;;;;;;;;5.00;3.75;;;;;17.81;66.70;101392.19;5050199;28;45746;-63
2022/10/05 11:17:55;;;;;;;;;2.50;2.50;;;;;17.83;66.29;101374.09;5045285;28;47117;-63
2022/10/05 11:20:26;;;;;;;;;3.50;3.50;;;;;17.94;66.40;101388.81;5050031;28;45673;-64
2022/10/05 11:23:06;;;;;;;;;3.50;3.50;;;;;17.92;66.20;101368.22;5053301;28;45364;-64
2022/10/05 11:25:50;;;;;;;;;3.75;3.25;;;;;18.08;66.03;101387.22;5036121;28;45839;-64
2022/10/05 11:28:39;;;;;;;;;4.00;4.00;;;;;17.96;65.79;101353.63;5053949;28;45831;-63
2022/10/05 11:31:32;;;;;;;;;2.75;2.75;;;;;18.17;66.04;101381.28;5054503;28;45594;-63
2022/10/05 11:34:44;;;;;;;;;3.75;3.25;;;;;18.22;65.75;101364.84;5054024;28;45489;-63
2022/10/05 11:37:21;;;;;;;;;3.50;2.75;;;;;18.24;65.52;101362.91;5054194;28;45552;-64
2022/10/05 11:40:28;;;;;;;;;5.25;2.00;;;;;18.27;65.24;101360.06;5051856;28;45798;-64
2022/10/05 11:43:22;;;;;;;;;4.00;4.00;;;;;18.30;65.59;101373.41;5054409;28;45858;-63
2022/10/05 11:46:16;;;;;;;;;4.75;4.75;;;;;18.31;65.50;101367.91;5044520;28;45561;-63
2022/10/05 11:48:45;;;;;;;;;3.50;3.50;;;;;18.37;65.75;101369.41;5050534;28;45523;-63
2022/10/05 11:51:23;;;;;;;;;4.75;2.75;;;;;18.27;65.19;101343.84;5054965;28;45380;-64
2022/10/05 11:54:16;;;;;;;;;2.00;2.00;;;;;18.43;65.18;101355.56;5054778;28;45518;-64
2022/10/05 11:56:48;;;;;;;;;3.50;3.50;;;;;18.32;65.88;101333.66;5053997;28;45557;-64
2022/10/05 11:59:34;;;;;;;;;2.00;2.00;;;;;18.44;65.20;101351.00;5042053;28;45837;-63
2022/10/05 12:02:20;;;;;;;;;2.75;2.50;;;;;18.62;64.65;101362.63;5055001;28;45484;-63
2022/10/05 12:05:09;;;;;;;;;3.00;3.00;;;;;18.42;64.98;101313.25;5054474;28;45453;-64
2022/10/05 12:07:54;;;;;;;;;3.00;2.00;;;;;18.69;64.99;101353.19;5026080;28;47384;-64
2022/10/05 12:10:21;;;;;;;;;4.00;4.00;;;;;18.74;65.42;101345.69;5036086;28;45549;-63
2022/10/05 12:13:24;;;;;;;;;2.00;2.00;;;;;18.82;65.09;101359.66;5054729;28;45466;-63
2022/10/05 12:16:06;;;;;;;;;4.00;3.50;;;;;18.86;64.54;101355.88;5013486;28;45603;-63
2022/10/05 12:18:32;;;;;;;;;3.25;2.25;;;;;18.91;65.04;101355.59;5054438;28;46255;-63
2022/10/05 12:21:26;;;;;;;;;3.75;2.75;;;;;18.91;64.92;101346.59;5054392;28;45816;-63
2022/10/05 12:24:24;;;;;;;;;4.00;3.25;;;;;18.84;64.97;101319.91;5036163;28;45562;-63
2022/10/05 12:26:57;;;;;;;;;4.75;2.75;;;;;19.00;65.14;101352.34;5037465;28;46009;-63
2022/10/05 12:29:45;;;;;;;;;4.25;3.00;;;;;19.10;64.56;101344.56;5057438;28;45802;-63
2022/10/05 12:32:18;;;;;;;;;4.50;3.00;;;;;19.13;64.71;101352.50;5058182;28;45455;-63
2022/10/05 12:34:43;;;;;;;;;3.75;3.75;;;;;19.16;64.63;101351.44;5044250;28;45423;-63